createdAt,value
2023-03-11T09:52:16.249Z,98925.28
2023-03-11T09:54:19.814Z,98925.28
2023-03-11T09:56:24.334Z,98910.87
2023-03-11T09:58:47.806Z,98893.28
2023-03-11T10:00:52.440Z,98883.47
2023-03-11T10:02:56.710Z,98879.28
2023-03-11T10:05:08.323Z,98885.38
2023-03-11T10:07:22.051Z,98878.16
2023-03-11T10:09:44.209Z,98885.03
2023-03-11T10:12:05.783Z,98881.69
2023-03-11T10:14:43.822Z,98880.09
2023-03-11T10:17:24.119Z,98893.97
2023-03-11T10:19:29.404Z,98891.09
2023-03-11T10:21:38.828Z,98891.69
2023-03-11T10:24:11.194Z,98873.53
2023-03-11T10:26:37.321Z,98892.41
2023-03-11T10:28:51.906Z,98889.94
2023-03-11T10:31:27.102Z,98897.03
2023-03-11T10:33:49.404Z,98919.97
2023-03-11T10:35:55.201Z,98909.53
2023-03-11T10:38:03.705Z,98953.84
2023-03-11T10:40:26.000Z,98930.03
2023-03-11T10:42:29.793Z,98959.00
2023-03-11T10:44:36.413Z,98950.63
2023-03-11T10:46:39.402Z,98978.78
2023-03-11T10:48:42.799Z,98973.03
2023-03-11T10:51:01.087Z,98981.75
2023-03-11T10:53:15.226Z,98968.22
2023-03-11T10:55:20.106Z,98963.87
2023-03-11T10:57:44.338Z,98987.16
2023-03-11T10:59:50.762Z,98993.06
2023-03-11T11:01:58.584Z,98985.09
2023-03-11T11:04:02.770Z,98996.22
2023-03-11T11:06:07.688Z,98969.50
2023-03-11T11:08:16.081Z,99025.69
2023-03-11T11:10:22.830Z,98996.53
2023-03-11T11:12:25.366Z,98977.75
2023-03-11T11:14:52.032Z,98992.16
2023-03-11T11:16:57.781Z,99011.06
2023-03-11T11:19:12.398Z,99003.13
2023-03-11T11:21:38.374Z,99019.53
2023-03-11T11:23:49.863Z,99027.81
2023-03-11T11:26:05.233Z,99020.31
2023-03-11T11:28:21.794Z,99033.47
2023-03-11T11:30:26.639Z,99026.69
2023-03-11T11:32:30.378Z,99036.91
2023-03-11T11:34:35.313Z,99034.59
2023-03-11T11:36:39.245Z,99027.78
2023-03-11T11:38:45.110Z,99018.13
2023-03-11T11:40:47.851Z,99060.22
2023-03-11T11:43:00.848Z,99041.09
2023-03-11T11:45:12.675Z,99037.00
2023-03-11T11:47:24.386Z,99053.09
2023-03-11T11:49:33.585Z,99034.78
2023-03-11T11:51:44.767Z,99039.06
2023-03-11T11:53:47.364Z,99032.06
2023-03-11T11:55:54.468Z,99043.47
2023-03-11T11:57:58.011Z,99047.38
2023-03-11T12:00:05.415Z,99039.59
2023-03-11T12:02:26.714Z,99042.31
2023-03-11T12:04:36.988Z,99045.22
2023-03-11T12:07:14.967Z,99034.00
2023-03-11T12:09:53.583Z,99049.44
2023-03-11T12:12:25.468Z,99069.31
2023-03-11T12:14:43.979Z,99070.09
2023-03-11T12:16:54.265Z,99091.94
2023-03-11T12:19:18.255Z,99094.19
2023-03-11T12:21:55.027Z,99072.41
2023-03-11T12:24:28.367Z,99061.72
2023-03-11T12:26:39.020Z,99066.41
2023-03-11T12:28:54.856Z,99082.81
2023-03-11T12:31:05.356Z,99061.75
2023-03-11T12:33:52.140Z,99033.72
2023-03-11T12:35:58.280Z,99076.16
2023-03-11T12:38:13.783Z,99074.34
2023-03-11T12:40:54.065Z,99096.94
2023-03-11T12:43:00.012Z,99071.00
2023-03-11T12:45:46.176Z,99096.25
2023-03-11T12:48:27.626Z,99108.75
2023-03-11T12:50:42.380Z,99088.72
2023-03-11T12:52:55.499Z,99094.47
2023-03-11T12:55:01.481Z,99080.19
2023-03-11T12:57:19.799Z,99119.78
2023-03-11T12:59:41.589Z,99112.38
2023-03-11T13:02:09.755Z,99149.75
2023-03-11T13:04:22.603Z,99116.28
2023-03-11T13:06:31.156Z,99110.28
2023-03-11T13:08:33.685Z,99097.62
2023-03-11T13:10:41.062Z,99123.19
2023-03-11T13:12:44.003Z,99109.25
2023-03-11T13:14:46.758Z,99107.50
2023-03-11T13:16:50.355Z,99099.41
2023-03-11T13:18:53.171Z,99094.34
2023-03-11T13:21:01.477Z,99113.56
2023-03-11T13:23:14.385Z,99113.78
2023-03-11T13:25:27.349Z,99150.62
2023-03-11T13:27:42.176Z,99123.84
2023-03-11T13:30:05.499Z,99120.16
2023-03-11T13:33:06.090Z,99128.78
2023-03-11T13:35:28.055Z,99151.09
2023-03-11T13:37:54.486Z,99170.97
2023-03-11T13:40:14.709Z,99155.03
2023-03-11T13:42:44.610Z,99176.28
2023-03-11T13:44:48.244Z,99165.03
2023-03-11T13:46:55.282Z,99179.31
2023-03-11T13:49:27.357Z,99176.88
2023-03-11T13:51:42.864Z,99173.97
2023-03-11T13:53:52.056Z,99183.50
2023-03-11T13:55:55.512Z,99177.34
2023-03-11T13:57:58.736Z,99184.59
2023-03-11T14:00:17.868Z,99185.44
2023-03-11T14:02:24.515Z,99222.87
2023-03-11T14:04:36.552Z,99206.06
2023-03-11T14:06:39.203Z,99211.66
2023-03-11T14:08:43.505Z,99206.78
2023-03-11T14:11:00.908Z,99210.03
2023-03-11T14:13:22.734Z,99190.12
2023-03-11T14:15:30.324Z,99234.44
2023-03-11T14:17:33.051Z,99200.37
2023-03-11T14:19:37.706Z,99210.84
2023-03-11T14:21:59.874Z,99210.25
2023-03-11T14:24:03.758Z,99200.53
2023-03-11T14:26:19.061Z,99207.66
2023-03-11T14:28:23.548Z,99219.69
2023-03-11T14:30:32.744Z,99219.94
2023-03-11T14:32:36.308Z,99235.44
2023-03-11T14:34:40.978Z,99247.03
2023-03-11T14:36:45.470Z,99237.00
2023-03-11T14:38:49.568Z,99230.19
2023-03-11T14:41:06.750Z,99229.56
2023-03-11T14:43:12.282Z,99250.94
2023-03-11T14:45:21.882Z,99235.53
2023-03-11T14:48:08.589Z,99269.75
2023-03-11T14:50:19.762Z,99247.53
2023-03-11T14:52:43.579Z,99249.34
2023-03-11T14:54:50.286Z,99269.16
2023-03-11T14:57:16.002Z,99267.31
2023-03-11T14:59:29.040Z,99270.88
2023-03-11T15:01:39.894Z,99274.38
2023-03-11T15:04:00.514Z,99295.47
2023-03-11T15:06:15.382Z,99342.97
2023-03-11T15:08:26.045Z,99281.97
2023-03-11T15:10:29.122Z,99287.13
2023-03-11T15:12:44.463Z,99311.66
2023-03-11T15:14:52.252Z,99320.91
2023-03-11T15:16:56.951Z,99308.34
2023-03-11T15:19:02.669Z,99310.56
2023-03-11T15:21:19.536Z,99296.53
2023-03-11T15:23:23.512Z,99306.81
2023-03-11T15:25:27.706Z,99310.00
2023-03-11T15:27:33.833Z,99324.78
2023-03-11T15:29:37.349Z,99295.81
2023-03-11T15:31:45.412Z,99310.59
2023-03-11T15:33:51.969Z,99304.28
2023-03-11T15:35:55.356Z,99310.28
2023-03-11T15:38:21.410Z,99319.84
2023-03-11T15:40:44.473Z,99308.34
2023-03-11T15:42:50.500Z,99324.94
2023-03-11T15:45:20.793Z,99332.09
2023-03-11T15:47:23.891Z,99336.59
2023-03-11T15:49:28.059Z,99330.19
2023-03-11T15:51:31.219Z,99340.81
2023-03-11T15:53:38.013Z,99353.44
2023-03-11T15:55:41.002Z,99353.87
2023-03-11T15:57:44.063Z,99368.94
2023-03-11T15:59:47.610Z,99372.22
2023-03-11T16:01:50.466Z,99371.22
2023-03-11T16:03:53.725Z,99377.41
2023-03-11T16:05:59.442Z,99381.75
2023-03-11T16:08:04.096Z,99384.19
2023-03-11T16:10:16.118Z,99377.59
2023-03-11T16:12:25.182Z,99382.22
2023-03-11T16:14:29.166Z,99379.16
2023-03-11T16:16:33.938Z,99379.22
2023-03-11T16:18:38.957Z,99393.34
2023-03-11T16:20:49.119Z,99403.34
2023-03-11T16:22:59.304Z,99392.44
2023-03-11T16:25:03.614Z,99393.41
2023-03-11T16:27:07.688Z,99385.97
2023-03-11T16:29:18.932Z,99398.06
2023-03-11T16:31:23.310Z,99412.84
2023-03-11T16:33:28.279Z,99404.44
2023-03-11T16:35:32.450Z,99408.25
2023-03-11T16:37:35.672Z,99412.50
2023-03-11T16:39:39.284Z,99419.50
2023-03-11T16:41:46.125Z,99419.50
2023-03-11T16:43:51.090Z,99422.00
2023-03-11T16:45:56.234Z,99444.72
2023-03-11T16:47:59.856Z,99428.81
2023-03-11T16:50:07.587Z,99453.00
2023-03-11T16:52:10.671Z,99449.00
2023-03-11T16:54:14.458Z,99463.66
2023-03-11T16:56:18.985Z,99455.00
2023-03-11T16:58:22.435Z,99465.53
2023-03-11T17:00:27.849Z,99472.19
2023-03-11T17:02:32.069Z,99483.94
2023-03-11T17:04:35.617Z,99478.88
2023-03-11T17:06:41.472Z,99508.53
2023-03-11T17:08:49.475Z,99480.91
2023-03-11T17:10:54.708Z,99490.00
2023-03-11T17:13:07.427Z,99507.00
2023-03-11T17:15:13.974Z,99523.63
2023-03-11T17:17:44.577Z,99523.50
2023-03-11T17:19:59.011Z,99536.03
2023-03-11T17:22:21.481Z,99516.72
2023-03-11T17:27:19.754Z,99512.47
2023-03-11T17:29:26.344Z,99519.31
2023-03-11T17:34:15.709Z,99516.13
2023-03-11T17:36:41.065Z,99513.59
2023-03-11T17:38:46.248Z,99520.69
2023-03-11T17:40:50.590Z,99528.09
2023-03-11T17:43:21.653Z,99531.44
2023-03-11T17:45:25.542Z,99537.75
2023-03-11T17:48:05.297Z,99530.41
2023-03-11T17:50:35.610Z,99546.16
2023-03-11T17:53:06.041Z,99546.19
2023-03-11T17:55:25.452Z,99551.19
2023-03-11T17:57:33.569Z,99543.63
2023-03-11T17:59:41.240Z,99537.53
2023-03-11T18:01:45.941Z,99548.88
2023-03-11T18:03:50.612Z,99563.75
2023-03-11T18:06:04.870Z,99562.81
2023-03-11T18:08:55.177Z,99567.81
2023-03-11T18:11:04.467Z,99572.53
2023-03-11T18:13:10.888Z,99591.75
2023-03-11T18:15:19.718Z,99584.00
2023-03-11T18:17:25.800Z,99590.00
2023-03-11T18:19:32.599Z,99591.44
2023-03-11T18:21:36.292Z,99586.25
2023-03-11T18:23:42.569Z,99585.72
2023-03-11T18:26:03.820Z,99600.13
2023-03-11T18:30:47.544Z,99610.69
2023-03-11T18:33:14.931Z,99599.38
2023-03-11T18:35:21.194Z,99618.75
2023-03-11T18:37:27.600Z,99598.75
2023-03-11T18:39:34.605Z,99607.47
2023-03-11T18:41:39.404Z,99608.03
2023-03-11T18:43:46.181Z,99613.69
2023-03-11T18:45:58.949Z,99619.44
2023-03-11T18:48:03.186Z,99629.25
2023-03-11T18:50:08.434Z,99629.25
2023-03-11T18:52:13.176Z,99620.47
2023-03-11T18:54:25.942Z,99620.47
2023-03-11T18:56:55.244Z,99627.06
2023-03-11T18:59:04.481Z,99630.00
2023-03-11T19:01:28.934Z,99639.22
2023-03-11T19:03:33.421Z,99644.81
2023-03-11T19:06:01.182Z,99643.03
2023-03-11T19:08:07.937Z,99664.50
2023-03-11T19:10:17.769Z,99634.91
2023-03-11T19:12:32.497Z,99642.75
2023-03-11T19:14:37.046Z,99636.06
2023-03-11T19:16:43.936Z,99653.09
2023-03-11T19:18:49.271Z,99632.44
2023-03-11T19:21:15.072Z,99639.12
2023-03-11T19:23:21.964Z,99657.56
2023-03-11T19:26:02.455Z,99640.59
2023-03-11T19:28:17.897Z,99666.63
2023-03-11T19:30:31.927Z,99640.06
2023-03-11T19:32:42.875Z,99649.41
2023-03-11T19:34:52.152Z,99633.88
2023-03-11T19:37:18.600Z,99632.94
2023-03-11T19:39:30.907Z,99642.47
2023-03-11T19:41:40.166Z,99661.28
2023-03-11T19:44:06.493Z,99653.81
2023-03-11T19:46:22.012Z,99641.03
2023-03-11T19:49:06.836Z,99643.87
2023-03-11T19:51:13.295Z,99650.72
2023-03-11T19:53:28.855Z,99648.50
2023-03-11T19:58:32.322Z,99652.03
2023-03-11T20:00:41.474Z,99644.47
2023-03-11T20:03:14.037Z,99639.31
2023-03-11T20:05:18.894Z,99645.66
2023-03-11T20:07:26.247Z,99647.59
2023-03-11T20:09:34.592Z,99634.78
2023-03-11T20:11:40.991Z,99618.75
2023-03-11T20:13:44.701Z,99613.56
2023-03-11T20:15:51.584Z,99616.75
2023-03-11T20:17:56.963Z,99609.28
2023-03-11T20:20:01.613Z,99611.16
2023-03-11T20:22:06.722Z,99607.78
2023-03-11T20:24:11.868Z,99619.13
2023-03-11T20:26:20.238Z,99593.41
2023-03-11T20:28:45.526Z,99614.00
2023-03-11T20:30:51.148Z,99601.31
2023-03-11T20:35:43.059Z,99591.41
2023-03-11T20:38:30.426Z,99584.56
2023-03-11T20:40:40.563Z,99584.56
2023-03-11T20:42:47.542Z,99573.34
2023-03-11T20:44:58.031Z,99576.03
2023-03-11T20:47:06.356Z,99568.41
2023-03-11T20:49:11.295Z,99573.59
2023-03-11T20:51:23.245Z,99573.66
2023-03-11T20:53:28.830Z,99578.06
2023-03-11T20:55:33.212Z,99581.69
2023-03-11T20:57:59.458Z,99570.53
2023-03-11T21:00:22.616Z,99573.16
2023-03-11T21:02:39.310Z,99591.91
2023-03-11T21:04:45.956Z,99586.03
2023-03-11T21:06:55.069Z,99596.41
2023-03-11T21:09:06.307Z,99592.16
2023-03-11T21:13:36.360Z,99596.63
2023-03-11T21:15:41.662Z,99591.44
2023-03-11T21:17:44.929Z,99598.50
2023-03-11T21:19:49.828Z,99597.50
2023-03-11T21:21:53.837Z,99608.81
2023-03-11T21:23:56.740Z,99596.06
2023-03-11T21:26:01.774Z,99604.84
2023-03-11T21:28:05.338Z,99605.56
2023-03-11T21:30:09.129Z,99612.66
2023-03-11T21:32:12.390Z,99612.00
2023-03-11T21:34:18.712Z,99606.56
2023-03-11T21:36:22.785Z,99604.87
2023-03-11T21:38:36.275Z,99603.34
2023-03-11T21:40:39.415Z,99612.91
2023-03-11T21:43:04.560Z,99614.56
2023-03-11T21:45:29.865Z,99614.47
2023-03-11T21:47:33.113Z,99627.25
2023-03-11T21:49:37.223Z,99632.28
2023-03-11T21:51:48.686Z,99612.97
2023-03-11T21:53:53.109Z,99626.59
2023-03-11T21:55:55.919Z,99637.59
2023-03-11T21:57:59.149Z,99639.12
2023-03-11T22:00:01.729Z,99643.37
2023-03-11T22:02:07.250Z,99656.41
2023-03-11T22:04:10.718Z,99648.72
2023-03-11T22:06:13.883Z,99652.97
2023-03-11T22:08:19.237Z,99652.88
2023-03-11T22:10:27.697Z,99669.97
2023-03-11T22:12:30.765Z,99669.06
2023-03-11T22:14:34.344Z,99677.78
2023-03-11T22:16:38.335Z,99671.69
2023-03-11T22:18:41.414Z,99687.19
2023-03-11T22:20:45.438Z,99681.00
2023-03-11T22:22:48.956Z,99680.09
2023-03-11T22:24:51.629Z,99687.09
2023-03-11T22:26:56.083Z,99683.75
2023-03-11T22:29:00.474Z,99687.94
2023-03-11T22:31:12.360Z,99682.16
2023-03-11T22:33:14.990Z,99694.88
2023-03-11T22:35:24.909Z,99694.91
2023-03-11T22:37:29.832Z,99695.13
2023-03-11T22:39:33.030Z,99700.38
2023-03-11T22:41:36.561Z,99719.00
2023-03-11T22:43:40.069Z,99722.91
2023-03-11T22:45:44.990Z,99734.00
2023-03-11T22:47:51.921Z,99739.12
2023-03-11T22:50:14.905Z,99746.81
2023-03-11T22:52:19.239Z,99756.13
2023-03-11T22:54:27.156Z,99756.41
2023-03-11T22:56:30.663Z,99755.56
2023-03-11T22:58:37.226Z,99762.47
2023-03-11T23:00:48.056Z,99755.78
2023-03-11T23:03:00.405Z,99752.34
2023-03-11T23:05:04.995Z,99752.59
2023-03-11T23:07:09.511Z,99766.94
2023-03-11T23:09:13.524Z,99774.75
2023-03-11T23:11:19.026Z,99767.25
2023-03-11T23:13:22.300Z,99756.87
2023-03-11T23:15:25.207Z,99762.00
2023-03-11T23:17:27.909Z,99759.53
2023-03-11T23:19:31.270Z,99763.88
2023-03-11T23:21:34.717Z,99756.16
2023-03-11T23:23:38.488Z,99747.44
